This is the latest recevied weather packets stored in our database for station/object KC0CAU. If no packets are shown the sender has not sent any weather packets the latest 1 day(s).
| Time | Temp. | Humidity | Pressure | Rain* | Wind** | Luminosity | Snow |
|---|---|---|---|---|---|---|---|
| 1778092218 | 7.78° C | 46% | 1019.8 hPa | 0 mm | - | - | - |
| 1778089510 | 6.11° C | 48% | 1020.5 hPa | 0 mm | - | - | - |
| 1778088609 | 6.11° C | 49% | 1020.7 hPa | 0 mm | - | - | - |
| 1778087708 | 6.11° C | 50% | 1020.8 hPa | 0 mm | - | - | - |
| 1778086806 | 5.56° C | 51% | 1020.9 hPa | 0 mm | - | - | - |
| 1778084162 | 5° C | 54% | 1021.5 hPa | 0 mm | - | - | - |
| 1778083271 | 4.44° C | 54% | 1021.5 hPa | 0 mm | - | - | - |
| 1778081458 | 4.44° C | 53% | 1021.5 hPa | 0 mm | - | - | - |
| 1778079654 | 4.44° C | 54% | 1021.6 hPa | 0 mm | - | - | - |
| 1778078752 | 3.89° C | 55% | 1021.6 hPa | 0 mm | - | - | - |
| 1778076042 | 2.22° C | 64% | 1021.7 hPa | 0 mm | - | - | - |
| 1778074234 | 1.11° C | 69% | 1021.9 hPa | 0 mm | - | - | - |
| 1778073344 | 0° C | 69% | 1021.9 hPa | 0 mm | - | - | - |
| 1778070626 | -1.11° C | 73% | 1021.6 hPa | 0 mm | - | - | - |
| 1778068824 | -1.67° C | 74% | 1021.3 hPa | 0 mm | - | - | - |
| 1778067923 | -1.67° C | 73% | 1021.1 hPa | 0 mm | - | - | - |
| 1778065219 | -1.67° C | 73% | 1020.8 hPa | 0 mm | - | - | - |
| 1778063425 | -1.67° C | 73% | 1020.9 hPa | 0 mm | - | - | - |
| 1778059813 | -1.67° C | 71% | 1020.7 hPa | 0 mm | - | - | - |
| 1778058006 | -1.11° C | 70% | 1020.6 hPa | 0 mm | - | - | - |
| 1778054461 | 0° C | 67% | 1020.4 hPa | 0 mm | - | - | - |
| 1778052656 | 0° C | 68% | 1020.5 hPa | 0 mm | - | - | - |
| 1778051755 | 0° C | 68% | 1020.6 hPa | 0 mm | - | - | - |
| 1778049953 | 0° C | 68% | 1020.5 hPa | 0 mm | - | - | - |
| 1778049056 | -0.56° C | 68% | 1020.7 hPa | 0 mm | - | - | - |
* Rain latest hour (hover to see other rain measurements)
** Current wind speed in m/s (hover to see current wind gust speed)